sensor_id;sensor_type;location;lat;lon;timestamp;pressure;altitude;pressure_sealevel;temperature;humidity
17615;BME280;8926;49.720;6.576;2023-07-31T00:01:21;99591.31;;;20.11;63.20
17615;BME280;8926;49.720;6.576;2023-07-31T00:03:46;99587.00;;;20.10;63.84
17615;BME280;8926;49.720;6.576;2023-07-31T00:06:12;99581.00;;;20.08;62.29
17615;BME280;8926;49.720;6.576;2023-07-31T00:08:37;99587.97;;;20.09;62.51
17615;BME280;8926;49.720;6.576;2023-07-31T00:11:02;99581.00;;;20.08;62.78
17615;BME280;8926;49.720;6.576;2023-07-31T00:13:28;99583.28;;;20.03;63.28
17615;BME280;8926;49.720;6.576;2023-07-31T00:15:53;99578.81;;;20.04;63.26
17615;BME280;8926;49.720;6.576;2023-07-31T00:18:18;99582.97;;;20.06;62.77
17615;BME280;8926;49.720;6.576;2023-07-31T00:20:44;99579.88;;;20.11;62.00
17615;BME280;8926;49.720;6.576;2023-07-31T00:23:09;99574.72;;;20.09;62.13
17615;BME280;8926;49.720;6.576;2023-07-31T00:25:34;99563.81;;;20.12;61.63
17615;BME280;8926;49.720;6.576;2023-07-31T00:27:59;99566.16;;;20.15;61.49
17615;BME280;8926;49.720;6.576;2023-07-31T00:30:25;99569.56;;;20.08;62.16
17615;BME280;8926;49.720;6.576;2023-07-31T00:32:52;99574.03;;;20.07;62.05
17615;BME280;8926;49.720;6.576;2023-07-31T00:35:17;99573.34;;;20.05;62.49
17615;BME280;8926;49.720;6.576;2023-07-31T00:37:42;99571.97;;;20.01;62.52
17615;BME280;8926;49.720;6.576;2023-07-31T00:40:08;99567.69;;;20.00;62.48
17615;BME280;8926;49.720;6.576;2023-07-31T00:42:33;99571.97;;;20.01;62.71
17615;BME280;8926;49.720;6.576;2023-07-31T00:44:59;99564.03;;;20.01;62.77
17615;BME280;8926;49.720;6.576;2023-07-31T00:47:24;99567.69;;;20.00;62.72
17615;BME280;8926;49.720;6.576;2023-07-31T00:49:50;99563.38;;;19.99;63.60
17615;BME280;8926;49.720;6.576;2023-07-31T00:52:16;99562.38;;;20.00;63.87
17615;BME280;8926;49.720;6.576;2023-07-31T00:54:42;99560.38;;;20.02;63.18
17615;BME280;8926;49.720;6.576;2023-07-31T00:57:07;99557.91;;;20.01;63.62
17615;BME280;8926;49.720;6.576;2023-07-31T00:59:33;99562.38;;;20.00;64.53
17615;BME280;8926;49.720;6.576;2023-07-31T01:01:59;99562.38;;;20.00;65.35
17615;BME280;8926;49.720;6.576;2023-07-31T01:04:24;99557.38;;;19.97;65.09
17615;BME280;8926;49.720;6.576;2023-07-31T01:07:01;99557.38;;;19.97;64.47
17615;BME280;8926;49.720;6.576;2023-07-31T01:09:57;99556.56;;;19.96;64.89
17615;BME280;8926;49.720;6.576;2023-07-31T01:12:29;99547.06;;;19.94;64.63
17615;BME280;8926;49.720;6.576;2023-07-31T01:15:08;99534.50;;;19.96;64.42
17615;BME280;8926;49.720;6.576;2023-07-31T01:17:38;99533.66;;;19.95;64.62
17615;BME280;8926;49.720;6.576;2023-07-31T01:20:05;99535.19;;;19.98;64.47
17615;BME280;8926;49.720;6.576;2023-07-31T01:23:04;99541.47;;;19.97;64.49
17615;BME280;8926;49.720;6.576;2023-07-31T01:28:40;99537.31;;;19.94;64.52
17615;BME280;8926;49.720;6.576;2023-07-31T01:31:11;99532.84;;;19.95;64.77
17615;BME280;8926;49.720;6.576;2023-07-31T01:33:37;99530.03;;;19.96;65.09
17615;BME280;8926;49.720;6.576;2023-07-31T01:36:03;99540.63;;;19.96;64.70
17615;BME280;8926;49.720;6.576;2023-07-31T01:38:29;99534.50;;;19.96;64.83
17615;BME280;8926;49.720;6.576;2023-07-31T01:40:54;99531.16;;;19.94;65.41
17615;BME280;8926;49.720;6.576;2023-07-31T01:43:19;99527.84;;;19.92;64.60
17615;BME280;8926;49.720;6.576;2023-07-31T01:45:45;99528.44;;;19.86;64.44
17615;BME280;8926;49.720;6.576;2023-07-31T01:48:10;99518.13;;;19.83;64.72
17615;BME280;8926;49.720;6.576;2023-07-31T01:50:35;99512.81;;;19.83;65.08
17615;BME280;8926;49.720;6.576;2023-07-31T01:53:01;99502.22;;;19.83;65.10
17615;BME280;8926;49.720;6.576;2023-07-31T01:55:26;99508.34;;;19.83;64.18
17615;BME280;8926;49.720;6.576;2023-07-31T01:57:51;99505.69;;;19.83;64.47
17615;BME280;8926;49.720;6.576;2023-07-31T02:00:17;99507.53;;;19.83;64.35
17615;BME280;8926;49.720;6.576;2023-07-31T02:02:43;99502.50;;;19.80;64.20
17615;BME280;8926;49.720;6.576;2023-07-31T02:05:08;99507.81;;;19.80;64.57
17615;BME280;8926;49.720;6.576;2023-07-31T02:07:33;99493.88;;;19.78;64.21
17615;BME280;8926;49.720;6.576;2023-07-31T02:09:59;99501.16;;;19.76;64.46
17615;BME280;8926;49.720;6.576;2023-07-31T02:12:24;99501.16;;;19.76;64.76
17615;BME280;8926;49.720;6.576;2023-07-31T02:14:49;99499.81;;;19.72;64.98
17615;BME280;8926;49.720;6.576;2023-07-31T02:17:14;99491.88;;;19.72;64.86
17615;BME280;8926;49.720;6.576;2023-07-31T02:19:40;99498.44;;;19.68;64.78
17615;BME280;8926;49.720;6.576;2023-07-31T02:22:05;99496.78;;;19.67;64.23
17615;BME280;8926;49.720;6.576;2023-07-31T02:24:30;99490.41;;;19.59;64.62
17615;BME280;8926;49.720;6.576;2023-07-31T02:26:57;99490.41;;;19.59;64.77
17615;BME280;8926;49.720;6.576;2023-07-31T02:29:22;99496.38;;;19.61;65.19
17615;BME280;8926;49.720;6.576;2023-07-31T02:31:47;99500.72;;;19.62;65.02
17615;BME280;8926;49.720;6.576;2023-07-31T02:34:12;99499.56;;;19.65;65.28
17615;BME280;8926;49.720;6.576;2023-07-31T02:36:38;99488.13;;;19.64;64.43
17615;BME280;8926;49.720;6.576;2023-07-31T02:39:03;99492.06;;;19.60;65.18
17615;BME280;8926;49.720;6.576;2023-07-31T02:41:28;99490.41;;;19.59;65.13
17615;BME280;8926;49.720;6.576;2023-07-31T02:43:54;99490.41;;;19.59;64.25
17615;BME280;8926;49.720;6.576;2023-07-31T02:46:19;99498.81;;;19.55;64.36
17615;BME280;8926;49.720;6.576;2023-07-31T02:48:45;99482.81;;;19.47;64.67
17615;BME280;8926;49.720;6.576;2023-07-31T02:51:10;99489.09;;;19.46;64.72
17615;BME280;8926;49.720;6.576;2023-07-31T02:53:35;99490.22;;;19.43;65.08
17615;BME280;8926;49.720;6.576;2023-07-31T02:56:01;99488.84;;;19.39;64.96
17615;BME280;8926;49.720;6.576;2023-07-31T02:58:26;99491.50;;;19.39;65.60
17615;BME280;8926;49.720;6.576;2023-07-31T03:00:51;99492.31;;;19.40;65.13
17615;BME280;8926;49.720;6.576;2023-07-31T03:03:16;99490.81;;;19.37;65.30
17615;BME280;8926;49.720;6.576;2023-07-31T03:05:42;99497.09;;;19.36;65.39
17615;BME280;8926;49.720;6.576;2023-07-31T03:08:07;99492.47;;;19.38;64.93
17615;BME280;8926;49.720;6.576;2023-07-31T03:10:32;99486.19;;;19.39;64.97
17615;BME280;8926;49.720;6.576;2023-07-31T03:12:58;99482.47;;;19.32;65.49
17615;BME280;8926;49.720;6.576;2023-07-31T03:15:23;99487.75;;;19.32;65.73
17615;BME280;8926;49.720;6.576;2023-07-31T03:17:48;99484.13;;;19.33;65.71
17615;BME280;8926;49.720;6.576;2023-07-31T03:20:13;99489.00;;;19.38;65.28
17615;BME280;8926;49.720;6.576;2023-07-31T03:22:39;99482.16;;;19.35;64.64
17615;BME280;8926;49.720;6.576;2023-07-31T03:25:04;99486.09;;;19.31;65.01
17615;BME280;8926;49.720;6.576;2023-07-31T03:27:30;99481.78;;;19.30;64.91
17615;BME280;8926;49.720;6.576;2023-07-31T03:29:55;99479.72;;;19.24;65.37
17615;BME280;8926;49.720;6.576;2023-07-31T03:32:21;99480.69;;;19.23;65.63
17615;BME280;8926;49.720;6.576;2023-07-31T03:34:46;99478.75;;;19.25;65.31
17615;BME280;8926;49.720;6.576;2023-07-31T03:37:11;99473.84;;;19.30;65.27
17615;BME280;8926;49.720;6.576;2023-07-31T03:39:37;99477.75;;;19.26;65.23
17615;BME280;8926;49.720;6.576;2023-07-31T03:42:02;99477.75;;;19.26;65.89
17615;BME280;8926;49.720;6.576;2023-07-31T03:44:27;99462.69;;;19.26;65.93
17615;BME280;8926;49.720;6.576;2023-07-31T03:46:53;99461.88;;;19.26;65.34
17615;BME280;8926;49.720;6.576;2023-07-31T03:49:18;99458.84;;;19.21;65.97
17615;BME280;8926;49.720;6.576;2023-07-31T03:51:43;99449.94;;;19.22;65.84
17615;BME280;8926;49.720;6.576;2023-07-31T03:54:09;99452.56;;;19.22;65.70
17615;BME280;8926;49.720;6.576;2023-07-31T03:56:35;99449.09;;;19.21;65.93
17615;BME280;8926;49.720;6.576;2023-07-31T03:59:00;99444.63;;;19.22;66.44
17615;BME280;8926;49.720;6.576;2023-07-31T04:01:25;99442.97;;;19.21;66.25
17615;BME280;8926;49.720;6.576;2023-07-31T04:03:51;99446.59;;;19.20;66.28
17615;BME280;8926;49.720;6.576;2023-07-31T04:06:16;99444.94;;;19.19;65.98
17615;BME280;8926;49.720;6.576;2023-07-31T04:08:44;99436.97;;;19.19;65.97
17615;BME280;8926;49.720;6.576;2023-07-31T04:11:10;99439.63;;;19.19;65.75
17615;BME280;8926;49.720;6.576;2023-07-31T04:13:36;99436.28;;;19.17;66.49
17615;BME280;8926;49.720;6.576;2023-07-31T04:16:01;99439.63;;;19.19;65.63
17615;BME280;8926;49.720;6.576;2023-07-31T04:18:27;99438.25;;;19.15;66.98
17615;BME280;8926;49.720;6.576;2023-07-31T04:20:52;99434.63;;;19.16;65.96
17615;BME280;8926;49.720;6.576;2023-07-31T04:23:17;99427.41;;;19.08;65.96
17615;BME280;8926;49.720;6.576;2023-07-31T04:25:43;99424.16;;;18.96;66.71
17615;BME280;8926;49.720;6.576;2023-07-31T04:28:08;99423.63;;;18.93;67.08
17615;BME280;8926;49.720;6.576;2023-07-31T04:30:33;99427.09;;;18.93;66.99
17615;BME280;8926;49.720;6.576;2023-07-31T04:32:58;99430.34;;;18.87;67.26
17615;BME280;8926;49.720;6.576;2023-07-31T04:35:24;99433.97;;;18.86;67.57
17615;BME280;8926;49.720;6.576;2023-07-31T04:37:49;99444.25;;;18.89;67.30
17615;BME280;8926;49.720;6.576;2023-07-31T04:40:15;99434.75;;;18.96;67.24
17615;BME280;8926;49.720;6.576;2023-07-31T04:42:41;99436.72;;;18.94;66.94
17615;BME280;8926;49.720;6.576;2023-07-31T04:45:08;99430.25;;;18.97;67.48
17615;BME280;8926;49.720;6.576;2023-07-31T04:47:33;99431.63;;;19.01;67.09
17615;BME280;8926;49.720;6.576;2023-07-31T04:49:59;99431.78;;;18.99;67.09
17615;BME280;8926;49.720;6.576;2023-07-31T04:52:24;99425.50;;;19.01;66.86
17615;BME280;8926;49.720;6.576;2023-07-31T04:54:49;99415.75;;;19.01;67.14
17615;BME280;8926;49.720;6.576;2023-07-31T04:57:14;99417.13;;;19.05;67.46
17615;BME280;8926;49.720;6.576;2023-07-31T04:59:40;99415.47;;;19.04;67.15
17615;BME280;8926;49.720;6.576;2023-07-31T05:02:07;99418.09;;;19.04;67.36
17615;BME280;8926;49.720;6.576;2023-07-31T05:04:33;99421.28;;;19.08;66.76
17615;BME280;8926;49.720;6.576;2023-07-31T05:06:58;99417.66;;;19.09;66.96
17615;BME280;8926;49.720;6.576;2023-07-31T05:09:23;99421.00;;;19.11;67.39
17615;BME280;8926;49.720;6.576;2023-07-31T05:11:48;99423.34;;;19.14;67.36
17615;BME280;8926;49.720;6.576;2023-07-31T05:14:14;99409.50;;;19.20;66.58
17615;BME280;8926;49.720;6.576;2023-07-31T05:16:39;99413.50;;;19.24;66.47
17615;BME280;8926;49.720;6.576;2023-07-31T05:19:04;99414.19;;;19.26;66.60
17615;BME280;8926;49.720;6.576;2023-07-31T05:21:29;99412.22;;;19.28;66.62
17615;BME280;8926;49.720;6.576;2023-07-31T05:23:55;99403.91;;;19.23;66.47
17615;BME280;8926;49.720;6.576;2023-07-31T05:26:20;99410.94;;;19.14;66.70
17615;BME280;8926;49.720;6.576;2023-07-31T05:28:45;99417.06;;;19.15;66.80
17615;BME280;8926;49.720;6.576;2023-07-31T05:31:11;99406.03;;;19.19;66.90
17615;BME280;8926;49.720;6.576;2023-07-31T05:33:36;99417.97;;;19.23;66.78
17615;BME280;8926;49.720;6.576;2023-07-31T05:36:01;99427.81;;;19.31;66.89
17615;BME280;8926;49.720;6.576;2023-07-31T05:38:26;99418.91;;;19.32;66.63
17615;BME280;8926;49.720;6.576;2023-07-31T05:40:52;99416.03;;;19.43;67.04
17615;BME280;8926;49.720;6.576;2023-07-31T05:43:17;99413.09;;;19.46;66.08
17615;BME280;8926;49.720;6.576;2023-07-31T05:45:43;99423.34;;;19.49;65.74
17615;BME280;8926;49.720;6.576;2023-07-31T05:48:08;99424.06;;;19.51;66.31
17615;BME280;8926;49.720;6.576;2023-07-31T05:50:33;99427.09;;;19.56;65.95
17615;BME280;8926;49.720;6.576;2023-07-31T05:52:59;99423.09;;;19.52;66.25
17615;BME280;8926;49.720;6.576;2023-07-31T05:55:24;99426.81;;;19.59;66.58
17615;BME280;8926;49.720;6.576;2023-07-31T05:57:52;99424.91;;;19.70;65.73
17615;BME280;8926;49.720;6.576;2023-07-31T06:00:17;99406.78;;;19.83;65.77
17615;BME280;8926;49.720;6.576;2023-07-31T06:02:42;99389.28;;;19.90;65.10
17615;BME280;8926;49.720;6.576;2023-07-31T06:05:08;99384.22;;;20.05;64.61
17615;BME280;8926;49.720;6.576;2023-07-31T06:07:33;99395.88;;;20.38;64.62
17615;BME280;8926;49.720;6.576;2023-07-31T06:09:58;99394.81;;;20.30;63.92
17615;BME280;8926;49.720;6.576;2023-07-31T06:12:30;99396.72;;;20.12;64.88
17615;BME280;8926;49.720;6.576;2023-07-31T06:14:56;99400.66;;;20.08;64.47
17615;BME280;8926;49.720;6.576;2023-07-31T06:17:21;99396.41;;;20.15;64.69
17615;BME280;8926;49.720;6.576;2023-07-31T06:19:47;99390.59;;;20.38;64.47
17615;BME280;8926;49.720;6.576;2023-07-31T06:22:12;99389.81;;;20.53;64.00
17615;BME280;8926;49.720;6.576;2023-07-31T06:24:37;99388.03;;;20.62;63.61
17615;BME280;8926;49.720;6.576;2023-07-31T06:27:03;99380.03;;;20.54;63.75
17615;BME280;8926;49.720;6.576;2023-07-31T06:29:29;99369.09;;;20.57;63.50
17615;BME280;8926;49.720;6.576;2023-07-31T06:31:55;99365.78;;;20.55;63.62
17615;BME280;8926;49.720;6.576;2023-07-31T06:34:20;99365.91;;;20.45;63.92
17615;BME280;8926;49.720;6.576;2023-07-31T06:36:45;99363.34;;;20.36;64.12
17615;BME280;8926;49.720;6.576;2023-07-31T06:39:11;99361.66;;;20.26;64.35
17615;BME280;8926;49.720;6.576;2023-07-31T06:41:36;99362.59;;;20.17;64.49
17615;BME280;8926;49.720;6.576;2023-07-31T06:44:01;99348.97;;;20.12;65.03
17615;BME280;8926;49.720;6.576;2023-07-31T06:46:27;99356.47;;;20.17;65.01
17615;BME280;8926;49.720;6.576;2023-07-31T06:48:52;99360.94;;;20.16;65.30
17615;BME280;8926;49.720;6.576;2023-07-31T06:51:18;99361.25;;;20.13;65.14
17615;BME280;8926;49.720;6.576;2023-07-31T06:53:43;99364.34;;;20.09;64.63
17615;BME280;8926;49.720;6.576;2023-07-31T06:56:10;99367.16;;;20.07;64.82
17615;BME280;8926;49.720;6.576;2023-07-31T06:58:35;99369.81;;;20.07;64.76
17615;BME280;8926;49.720;6.576;2023-07-31T07:01:00;99363.16;;;20.03;65.35
17615;BME280;8926;49.720;6.576;2023-07-31T07:03:27;99364.97;;;20.03;65.27
17615;BME280;8926;49.720;6.576;2023-07-31T07:05:52;99362.00;;;20.06;64.85
17615;BME280;8926;49.720;6.576;2023-07-31T07:08:17;99356.63;;;20.15;65.22
17615;BME280;8926;49.720;6.576;2023-07-31T07:10:43;99359.25;;;20.15;64.71
17615;BME280;8926;49.720;6.576;2023-07-31T07:13:08;99358.63;;;20.21;64.80
17615;BME280;8926;49.720;6.576;2023-07-31T07:15:33;99354.88;;;20.32;64.01
17615;BME280;8926;49.720;6.576;2023-07-31T07:17:59;99352.91;;;20.68;63.58
17615;BME280;8926;49.720;6.576;2023-07-31T07:20:24;99346.91;;;20.66;63.04
17615;BME280;8926;49.720;6.576;2023-07-31T07:22:49;99345.94;;;20.75;63.26
17615;BME280;8926;49.720;6.576;2023-07-31T07:25:15;99344.28;;;20.74;63.17
17615;BME280;8926;49.720;6.576;2023-07-31T07:27:40;99331.69;;;20.76;63.17
17615;BME280;8926;49.720;6.576;2023-07-31T07:30:06;99333.50;;;20.84;62.45
17615;BME280;8926;49.720;6.576;2023-07-31T07:32:31;99320.25;;;20.92;62.68
17615;BME280;8926;49.720;6.576;2023-07-31T07:34:56;99325.25;;;20.95;62.47
17615;BME280;8926;49.720;6.576;2023-07-31T07:37:22;99327.81;;;21.21;61.69
17615;BME280;8926;49.720;6.576;2023-07-31T07:39:47;99332.13;;;21.22;61.74
17615;BME280;8926;49.720;6.576;2023-07-31T07:42:12;99320.47;;;21.31;61.61
17615;BME280;8926;49.720;6.576;2023-07-31T07:44:37;99318.16;;;21.44;61.08
17615;BME280;8926;49.720;6.576;2023-07-31T07:47:03;99322.50;;;21.45;61.23
17615;BME280;8926;49.720;6.576;2023-07-31T07:49:28;99316.84;;;21.40;61.25
17615;BME280;8926;49.720;6.576;2023-07-31T07:51:54;99320.31;;;21.41;61.19
17615;BME280;8926;49.720;6.576;2023-07-31T07:54:19;99319.16;;;21.43;61.58
17615;BME280;8926;49.720;6.576;2023-07-31T07:56:48;99325.81;;;21.23;61.71
17615;BME280;8926;49.720;6.576;2023-07-31T07:59:13;99321.78;;;21.19;61.92
17615;BME280;8926;49.720;6.576;2023-07-31T08:01:38;99333.06;;;21.13;61.39
17615;BME280;8926;49.720;6.576;2023-07-31T08:04:04;99313.34;;;21.23;61.69
17615;BME280;8926;49.720;6.576;2023-07-31T08:06:29;99311.53;;;21.48;60.24
17615;BME280;8926;49.720;6.576;2023-07-31T08:08:55;99311.81;;;21.61;59.33
17615;BME280;8926;49.720;6.576;2023-07-31T08:11:20;99286.56;;;21.74;59.47
17615;BME280;8926;49.720;6.576;2023-07-31T08:13:48;99288.56;;;21.63;59.83
17615;BME280;8926;49.720;6.576;2023-07-31T08:16:13;99293.88;;;21.63;59.85
17615;BME280;8926;49.720;6.576;2023-07-31T08:18:38;99303.56;;;21.56;59.48
17615;BME280;8926;49.720;6.576;2023-07-31T08:21:05;99282.44;;;21.47;59.96
17615;BME280;8926;49.720;6.576;2023-07-31T08:23:30;99269.66;;;21.50;59.92
17615;BME280;8926;49.720;6.576;2023-07-31T08:25:56;99289.22;;;21.57;60.02
17615;BME280;8926;49.720;6.576;2023-07-31T08:28:21;99286.41;;;21.75;59.53
17615;BME280;8926;49.720;6.576;2023-07-31T08:30:46;99286.84;;;21.95;59.38
17615;BME280;8926;49.720;6.576;2023-07-31T08:33:11;99291.81;;;21.98;58.99
17615;BME280;8926;49.720;6.576;2023-07-31T08:35:37;99287.50;;;22.05;58.63
17615;BME280;8926;49.720;6.576;2023-07-31T08:38:02;99289.00;;;21.99;58.66
17615;BME280;8926;49.720;6.576;2023-07-31T08:40:28;99284.84;;;21.97;58.71
17615;BME280;8926;49.720;6.576;2023-07-31T08:42:55;99278.88;;;22.03;58.24
17615;BME280;8926;49.720;6.576;2023-07-31T08:45:27;99279.53;;;21.97;57.77
17615;BME280;8926;49.720;6.576;2023-07-31T08:47:53;99267.88;;;22.06;58.42
17615;BME280;8926;49.720;6.576;2023-07-31T08:50:20;99272.88;;;21.93;58.24
17615;BME280;8926;49.720;6.576;2023-07-31T08:52:47;99266.91;;;21.83;58.50
17615;BME280;8926;49.720;6.576;2023-07-31T08:55:13;99268.78;;;21.74;59.31
17615;BME280;8926;49.720;6.576;2023-07-31T08:57:38;99268.34;;;21.54;59.47
17615;BME280;8926;49.720;6.576;2023-07-31T09:00:05;99276.63;;;21.51;59.70
17615;BME280;8926;49.720;6.576;2023-07-31T09:02:49;99282.63;;;21.37;59.91
17615;BME280;8926;49.720;6.576;2023-07-31T09:05:17;99277.00;;;21.24;60.08
17615;BME280;8926;49.720;6.576;2023-07-31T09:07:45;99279.94;;;21.05;61.02
17615;BME280;8926;49.720;6.576;2023-07-31T09:10:12;99271.97;;;21.05;60.83
17615;BME280;8926;49.720;6.576;2023-07-31T09:12:38;99278.44;;;21.02;61.15
17615;BME280;8926;49.720;6.576;2023-07-31T09:15:04;99275.28;;;21.07;61.30
17615;BME280;8926;49.720;6.576;2023-07-31T09:17:35;99273.97;;;21.19;61.48
17615;BME280;8926;49.720;6.576;2023-07-31T09:20:18;99276.50;;;21.20;61.23
17615;BME280;8926;49.720;6.576;2023-07-31T09:22:44;99269.34;;;21.29;60.75
17615;BME280;8926;49.720;6.576;2023-07-31T09:25:16;99264.34;;;21.42;60.84
17615;BME280;8926;49.720;6.576;2023-07-31T09:27:58;99267.34;;;21.47;60.55
17615;BME280;8926;49.720;6.576;2023-07-31T09:30:23;99261.81;;;21.57;60.57
17615;BME280;8926;49.720;6.576;2023-07-31T09:32:49;99268.63;;;21.59;59.45
17615;BME280;8926;49.720;6.576;2023-07-31T09:35:27;99266.66;;;21.53;59.15
17615;BME280;8926;49.720;6.576;2023-07-31T09:37:53;99263.00;;;21.54;58.87
17615;BME280;8926;49.720;6.576;2023-07-31T09:40:26;99256.31;;;21.66;59.07
17615;BME280;8926;49.720;6.576;2023-07-31T09:43:18;99241.34;;;21.74;58.12
17615;BME280;8926;49.720;6.576;2023-07-31T09:45:55;99248.69;;;21.72;57.23
17615;BME280;8926;49.720;6.576;2023-07-31T09:48:23;99245.50;;;21.76;56.99
17615;BME280;8926;49.720;6.576;2023-07-31T09:50:50;99242.97;;;21.83;57.33
17615;BME280;8926;49.720;6.576;2023-07-31T09:53:16;99243.78;;;21.91;56.92
17615;BME280;8926;49.720;6.576;2023-07-31T09:55:42;99246.63;;;21.90;56.55
17615;BME280;8926;49.720;6.576;2023-07-31T09:58:12;99250.59;;;21.94;56.99
17615;BME280;8926;49.720;6.576;2023-07-31T10:00:38;99249.94;;;21.92;56.72
17615;BME280;8926;49.720;6.576;2023-07-31T10:03:06;99247.94;;;21.94;57.56
17615;BME280;8926;49.720;6.576;2023-07-31T10:08:03;99253.25;;;21.94;56.79
17615;BME280;8926;49.720;6.576;2023-07-31T10:10:28;99254.59;;;21.90;56.68
17615;BME280;8926;49.720;6.576;2023-07-31T10:12:56;99248.50;;;21.81;56.71
17615;BME280;8926;49.720;6.576;2023-07-31T10:15:21;99254.00;;;21.72;57.00
17615;BME280;8926;49.720;6.576;2023-07-31T10:17:48;99258.97;;;21.75;57.42
17615;BME280;8926;49.720;6.576;2023-07-31T10:20:14;99251.31;;;21.80;57.22
17615;BME280;8926;49.720;6.576;2023-07-31T10:22:42;99249.00;;;21.77;57.55
17615;BME280;8926;49.720;6.576;2023-07-31T10:25:08;99245.00;;;21.73;57.90
17615;BME280;8926;49.720;6.576;2023-07-31T10:27:35;99258.47;;;21.71;57.67
17615;BME280;8926;49.720;6.576;2023-07-31T10:30:04;99251.69;;;21.60;57.21
17615;BME280;8926;49.720;6.576;2023-07-31T10:32:30;99254.38;;;21.52;57.64
17615;BME280;8926;49.720;6.576;2023-07-31T10:34:56;99266.66;;;21.45;57.27
17615;BME280;8926;49.720;6.576;2023-07-31T10:37:41;99248.22;;;21.36;56.92
17615;BME280;8926;49.720;6.576;2023-07-31T10:40:17;99273.34;;;21.25;57.42
17615;BME280;8926;49.720;6.576;2023-07-31T10:42:49;99270.13;;;21.13;57.86
17615;BME280;8926;49.720;6.576;2023-07-31T10:48:00;99265.97;;;21.11;58.10
17615;BME280;8926;49.720;6.576;2023-07-31T10:50:26;99277.63;;;21.18;58.32
17615;BME280;8926;49.720;6.576;2023-07-31T10:52:56;99273.28;;;21.17;58.49
17615;BME280;8926;49.720;6.576;2023-07-31T10:55:31;99270.84;;;21.23;58.76
17615;BME280;8926;49.720;6.576;2023-07-31T10:58:13;99274.50;;;21.22;58.08
17615;BME280;8926;49.720;6.576;2023-07-31T11:00:42;99263.72;;;21.24;58.72
17615;BME280;8926;49.720;6.576;2023-07-31T11:03:10;99261.56;;;21.27;58.66
17615;BME280;8926;49.720;6.576;2023-07-31T11:10:39;99276.34;;;21.30;59.33
17615;BME280;8926;49.720;6.576;2023-07-31T11:13:04;99284.28;;;21.22;59.30
17615;BME280;8926;49.720;6.576;2023-07-31T11:15:30;99281.28;;;21.17;59.86
17615;BME280;8926;49.720;6.576;2023-07-31T11:17:56;99267.66;;;21.20;59.89
17615;BME280;8926;49.720;6.576;2023-07-31T11:20:24;99269.97;;;21.15;60.05
17615;BME280;8926;49.720;6.576;2023-07-31T11:22:49;99265.66;;;21.14;60.26
17615;BME280;8926;49.720;6.576;2023-07-31T11:25:15;99270.31;;;21.20;60.29
17615;BME280;8926;49.720;6.576;2023-07-31T11:27:41;99262.66;;;21.09;60.65
17615;BME280;8926;49.720;6.576;2023-07-31T11:30:07;99261.19;;;21.14;60.77
17615;BME280;8926;49.720;6.576;2023-07-31T11:32:32;99266.03;;;21.27;61.24
17615;BME280;8926;49.720;6.576;2023-07-31T11:34:58;99271.34;;;21.27;60.89
17615;BME280;8926;49.720;6.576;2023-07-31T11:37:23;99268.84;;;21.25;60.99
17615;BME280;8926;49.720;6.576;2023-07-31T11:40:01;99260.84;;;21.33;60.70
17615;BME280;8926;49.720;6.576;2023-07-31T11:42:26;99264.50;;;21.32;60.96
17615;BME280;8926;49.720;6.576;2023-07-31T11:44:52;99254.38;;;21.36;60.82
17615;BME280;8926;49.720;6.576;2023-07-31T11:47:17;99261.22;;;21.30;61.40
17615;BME280;8926;49.720;6.576;2023-07-31T11:49:43;99256.41;;;21.26;61.26
17615;BME280;8926;49.720;6.576;2023-07-31T11:52:09;99257.41;;;21.25;61.41
17615;BME280;8926;49.720;6.576;2023-07-31T11:54:35;99241.94;;;21.04;61.41
17615;BME280;8926;49.720;6.576;2023-07-31T11:57:00;99246.06;;;20.98;61.69
17615;BME280;8926;49.720;6.576;2023-07-31T11:59:26;99242.44;;;20.99;61.84
17615;BME280;8926;49.720;6.576;2023-07-31T12:01:52;99243.75;;;21.04;61.40
17615;BME280;8926;49.720;6.576;2023-07-31T12:04:19;99238.75;;;21.09;61.72
17615;BME280;8926;49.720;6.576;2023-07-31T12:06:47;99237.75;;;21.10;61.51
17615;BME280;8926;49.720;6.576;2023-07-31T12:09:14;99249.06;;;21.04;62.05
17615;BME280;8926;49.720;6.576;2023-07-31T12:11:47;99237.25;;;21.06;61.70
17615;BME280;8926;49.720;6.576;2023-07-31T12:14:24;99239.09;;;20.97;62.25
17615;BME280;8926;49.720;6.576;2023-07-31T12:17:04;99249.38;;;20.84;62.60
17615;BME280;8926;49.720;6.576;2023-07-31T12:19:30;99255.00;;;20.81;62.68
17615;BME280;8926;49.720;6.576;2023-07-31T12:21:59;99261.97;;;20.82;62.59
17615;BME280;8926;49.720;6.576;2023-07-31T12:24:28;99251.38;;;20.74;62.74
17615;BME280;8926;49.720;6.576;2023-07-31T12:26:53;99272.59;;;20.66;63.71
17615;BME280;8926;49.720;6.576;2023-07-31T12:29:20;99270.41;;;20.61;64.48
17615;BME280;8926;49.720;6.576;2023-07-31T12:31:45;99261.44;;;20.46;67.74
17615;BME280;8926;49.720;6.576;2023-07-31T12:34:18;99275.19;;;20.42;68.09
17615;BME280;8926;49.720;6.576;2023-07-31T12:36:43;99271.03;;;20.39;67.91
17615;BME280;8926;49.720;6.576;2023-07-31T12:39:09;99270.63;;;20.26;69.31
17615;BME280;8926;49.720;6.576;2023-07-31T12:41:35;99273.75;;;20.21;70.01
17615;BME280;8926;49.720;6.576;2023-07-31T12:44:00;99271.78;;;20.23;69.80
17615;BME280;8926;49.720;6.576;2023-07-31T12:46:25;99275.75;;;20.27;70.58
17615;BME280;8926;49.720;6.576;2023-07-31T12:48:51;99272.09;;;20.20;70.46
17615;BME280;8926;49.720;6.576;2023-07-31T12:51:16;99257.75;;;20.05;70.52
17615;BME280;8926;49.720;6.576;2023-07-31T12:53:41;99258.72;;;19.96;71.85
17615;BME280;8926;49.720;6.576;2023-07-31T12:56:07;99258.31;;;19.83;71.70
17615;BME280;8926;49.720;6.576;2023-07-31T12:58:32;99250.84;;;19.78;72.04
17615;BME280;8926;49.720;6.576;2023-07-31T13:00:57;99248.00;;;19.72;72.96
17615;BME280;8926;49.720;6.576;2023-07-31T13:03:23;99246.88;;;19.74;72.90
17615;BME280;8926;49.720;6.576;2023-07-31T13:05:48;99227.13;;;19.77;73.08
17615;BME280;8926;49.720;6.576;2023-07-31T13:08:13;99225.56;;;19.92;73.27
17615;BME280;8926;49.720;6.576;2023-07-31T13:10:41;99224.28;;;20.04;73.50
17615;BME280;8926;49.720;6.576;2023-07-31T13:13:06;99223.13;;;20.07;72.51
17615;BME280;8926;49.720;6.576;2023-07-31T13:15:31;99217.00;;;20.06;72.44
17615;BME280;8926;49.720;6.576;2023-07-31T13:17:56;99217.31;;;20.03;72.07
17615;BME280;8926;49.720;6.576;2023-07-31T13:20:22;99217.97;;;19.97;71.66